Aeroporto :
LOGIN :

Iscrizione | Disclaimer

   EN    FR    IT 

 










Sommario :    VFR   VFR Marginale   IFR   IFR Intensivo   IFR Molto Intensivo
Visibilità : 
Base nubi : 
>= 8 km
>= 3000ft
5 / 8 km
1000 / 3000 ft
1500m / 5 km
500 / 1000 ft
800 / 1500m
200 / 500 ft
< 800m
< 200 ft
Simboli :   Temporali  Nebbia  Neve Forte  Precipitazioni Forti  Vento > 20 kt
SIGMETs :   Varie  Temporali  Ghiacco  Turbolenza  Onda orograficha  Ceneri Vulcaniche






- Altitudine del aeroporto : 65 ft
- Codice IATA : PIK


EGPK - Glasgow Prestwick

ULTIMO METAR :
  • 050650Z 33008KT 310V010 9999 FEW030 10/05 Q0998

METARs OBSOLETI :
  • 050620Z 32008KT 9999 FEW030 09/05 Q0998
  • 050550Z 33005KT 310V010 9999 FEW030 08/05 Q0998
  • 050450Z 35004KT 310V030 9999 FEW030 08/05 Q0998

TAF TAF EGPK
Valido dal 05 a 06 ore il 06 a 06 ore UTC


050455Z 0506/0606 34009KT 9999 SCT030
BECMG 0510/0513 32019KT
PROB30
TEMPO 0510/0521 7000 SHRA
PROB30
TEMPO 0514/0524 31025G35KT
PROB40
TEMPO 0521/0602 6000 RA BKN014
BECMG 0602/0606 36009KT



MetMap, La meteo Aeronautica in un colpo d'occhio ! - Copyright ORBIFLY Dicembre 2007 - Disclaimer

ORBIFLY MET'MAP TEAM :

Programmazione e sviluppo : Alexandra Zaïnal
Concezione : Baudouin d'Aumeries
Aiuto per la programmazione : Marc-Olivier Méhu
Supporto tecnico e logistico : Manuel Goepfert
Aiuto per la traduzione : Arnaldo La Scala

Contatto : metmap@orbifly.com




FONTI E CREDITI :

   NOAA